Latest Weather Observations for Coolangatta

IDN60801

Issued at 4:33 pm EST Saturday 27 August 2016 (issued every 30 minutes, with the page automatically refreshed every 10 minutes)

About weather observations | Map of weather stations | Latest weather observations for NSW | Other Formats
Station Details ID: 040717 Name: COOLANGATTA Lat: -28.17 Lon: 153.51 Height: 4.0 m
Data from the previous 72 hours. | See also: Recent months at Coolangatta
Date/Time
EST
Temp
°C
App
Temp
°C
Dew
Point
°C
Rel
Hum
%
Delta-T
°C
Wind Press
QNH
hPa
Press
MSL
hPa
Rain since
9am
mm
Dir  Spd
km/h
Gust
km/h
Spd
kts
Gust
kts
27/04:30pm 19.0 14.7 6.8 45 6.1 S 19 28 10 15 1018.2 1018.2 0.2
27/04:00pm 19.7 15.4 7.1 44 6.4 S 19 28 10 15 1017.9 1017.9 0.2
27/03:30pm 20.3 16.3 6.6 41 6.9 SW 17 26 9 14 1017.7 1017.7 0.2
27/03:00pm 20.1 15.5 5.7 39 7.1 SSW 19 24 10 13 1017.8 1017.8 0.2
27/02:30pm 19.9 15.1 5.5 39 7.1 SSW 20 30 11 16 1017.8 1017.8 0.2
27/02:00pm 20.3 15.9 6.6 41 6.9 SSW 19 32 10 17 1017.9 1017.9 0.2
27/01:30pm 20.1 16.1 6.8 42 6.7 SW 17 26 9 14 1018.0 1018.0 0.2
27/01:00pm 19.6 15.2 6.4 42 6.6 SSW 19 32 10 17 1018.1 1018.1 0.2
27/12:30pm 20.2 15.7 6.9 42 6.7 SW 20 33 11 18 1018.3 1018.3 0.2
27/12:00pm 19.6 14.8 4.9 38 7.1 SSW 19 28 10 15 1018.6 1018.6 0.2
27/11:30am 18.8 14.7 6.0 43 6.3 SW 17 24 9 13 1018.9 1018.9 0.2
27/11:00am 18.2 14.4 5.8 44 6.0 SSW 15 24 8 13 1019.4 1019.4 0.2
27/10:30am 17.4 12.2 5.4 45 5.8 SSW 22 32 12 17 1019.5 1019.5 0.2
27/10:00am 16.9 12.3 5.5 47 5.5 SW 19 28 10 15 1019.7 1019.7 0.0
27/09:30am 16.3 10.7 5.6 49 5.1 S 24 32 13 17 1019.7 1019.7 0.0
27/09:00am 15.8 10.4 4.5 47 5.3 SSW 22 32 12 17 1019.7 1019.7 2.4
27/08:30am 15.5 10.7 4.6 48 5.1 SSW 19 30 10 16 1019.6 1019.6 2.4
27/08:00am 15.1 11.0 4.5 49 4.9 S 15 20 8 11 1019.4 1019.4 2.4
27/07:30am 14.1 9.9 3.8 50 4.7 S 15 20 8 11 1019.1 1019.1 2.4
27/07:00am 13.3 8.5 2.8 49 4.6 SW 17 26 9 14 1018.6 1018.6 2.4
27/06:30am 12.6 7.8 2.7 51 4.3 SSW 17 26 9 14 1018.5 1018.5 2.4
27/06:00am 12.8 7.6 2.6 50 4.5 SSW 19 30 10 16 1018.4 1018.4 2.4
27/05:30am 12.6 7.4 3.6 54 4.0 SSW 20 33 11 18 1018.1 1018.1 2.4
27/05:00am 12.7 7.6 4.2 56 3.8 SSW 20 33 11 18 1017.8 1017.8 2.4
27/04:30am 13.2 8.2 4.4 55 4.0 SW 20 35 11 19 1017.4 1017.4 2.4
27/04:00am 13.2 8.4 4.6 56 3.9 SSW 19 28 10 15 1017.2 1017.2 2.4
27/03:30am 12.9 9.0 5.3 60 3.5 SSW 15 24 8 13 1017.1 1017.1 2.4
27/03:00am 13.2 8.9 5.4 59 3.6 SW 17 24 9 13 1017.2 1017.2 2.4
27/02:30am 13.0 8.8 5.9 62 3.3 SW 17 26 9 14 1017.1 1017.1 2.4
27/02:00am 13.1 8.7 6.5 64 3.1 SSW 19 32 10 17 1017.0 1017.0 2.4
27/01:30am 13.1 8.9 7.3 68 2.8 SW 19 26 10 14 1017.0 1017.0 2.4
27/01:00am 13.0 10.0 9.1 77 2.0 SW 15 24 8 13 1017.0 1017.0 2.4
27/12:30am 12.8 11.1 10.0 83 1.4 SW 9 13 5 7 1017.2 1017.2 2.4
27/12:00am 12.6 10.6 10.0 84 1.3 SSW 11 15 6 8 1017.5 1017.5 2.4
 
Date/Time
EST
Temp
°C
App
Temp
°C
Dew
Point
°C
Rel
Hum
%
Delta-T
°C
Wind Press
QNH
hPa
Press
MSL
hPa
Rain since
9am
mm
Dir  Spd
km/h
Gust
km/h
Spd
kts
Gust
kts
26/11:30pm 12.8 11.1 10.0 83 1.4 SSW 9 13 5 7 1017.6 1017.6 2.4
26/11:00pm 12.9 10.8 9.7 81 1.6 S 11 15 6 8 1017.4 1017.4 1.8
26/10:58pm 13.0 10.9 9.8 81 1.6 S 11 15 6 8 1017.3 1017.3 1.8
26/10:41pm 13.1 9.8 9.4 78 1.9 SSW 17 24 9 13 1017.2 1017.2 1.2
26/10:30pm 14.8 11.9 8.3 65 3.3 SW 13 24 7 13 1017.0 1017.0 0.0
26/10:00pm 14.8 12.0 8.7 67 3.1 SW 13 20 7 11 1016.7 1016.7 0.0
26/09:30pm 14.9 11.7 8.6 66 3.2 SW 15 22 8 12 1016.7 1016.7 0.0
26/09:00pm 15.1 11.9 8.3 64 3.4 SSW 15 20 8 11 1016.5 1016.5 0.0
26/08:30pm 15.2 12.4 8.4 64 3.4 SSW 13 17 7 9 1016.3 1016.3 0.0
26/08:00pm 15.4 12.2 8.6 64 3.4 SW 15 22 8 12 1016.4 1016.4 0.0
26/07:30pm 15.2 11.7 8.9 66 3.2 SSW 17 20 9 11 1016.4 1016.4 0.0
26/07:00pm 15.1 12.1 9.2 68 3.0 SSW 15 20 8 11 1016.2 1016.2 0.0
26/06:30pm 15.1 12.5 9.5 69 2.9 SW 13 17 7 9 1016.1 1016.1 0.0
26/06:00pm 15.3 13.2 9.9 70 2.8 SSW 11 15 6 8 1015.9 1015.9 0.0
26/05:30pm 15.5 13.3 9.4 67 3.1 S 11 17 6 9 1015.5 1015.5 0.0
26/05:00pm 16.5 13.4 9.0 61 3.9 S 15 24 8 13 1015.2 1015.2 0.0
26/04:30pm 18.0 14.5 8.6 54 4.9 SSE 17 22 9 12 1014.8 1014.8 0.0
26/04:00pm 18.4 15.4 7.8 50 5.4 SE 13 20 7 11 1014.6 1014.6 0.0
26/03:30pm 18.6 15.5 7.4 48 5.7 SE 13 20 7 11 1014.4 1014.4 0.0
26/03:00pm 19.1 15.6 7.2 46 6.0 SE 15 22 8 12 1014.4 1014.4 0.0
26/02:30pm 18.9 14.6 7.7 48 5.7 ESE 20 32 11 17 1014.6 1014.6 0.0
26/02:00pm 19.0 14.5 7.1 46 6.0 ESE 20 28 11 15 1014.6 1014.6 0.0
26/01:30pm 20.2 16.0 7.6 44 6.5 ESE 19 26 10 14 1014.4 1014.4 0.0
26/01:00pm 18.9 14.3 6.4 44 6.2 ESE 20 28 11 15 1014.6 1014.6 0.0
26/12:30pm 19.2 14.7 6.3 43 6.4 ESE 19 24 10 13 1014.8 1014.8 0.0
26/12:00pm 19.7 15.6 6.1 41 6.8 ESE 17 22 9 12 1015.3 1015.3 0.0
26/11:30am 19.1 16.4 5.6 41 6.6 E 9 17 5 9 1015.6 1015.6 0.0
26/11:00am 18.1 14.8 6.3 46 5.8 NNE 13 17 7 9 1016.0 1016.0 0.0
26/10:30am 17.8 14.7 7.2 50 5.3 NNE 13 19 7 10 1016.3 1016.3 0.0
26/10:00am 17.6 15.2 7.1 50 5.2 NNE 9 13 5 7 1016.8 1016.8 0.0
26/09:30am 17.9 16.0 6.7 48 5.6 SE 6 13 3 7 1017.0 1017.0 0.0
26/09:00am 16.5 14.5 6.3 51 5.0 WSW 6 9 3 5 1017.0 1017.0 0.0
26/08:30am 15.4 13.0 5.3 51 4.8 WSW 7 9 4 5 1017.4 1017.4 0.0
26/08:00am 14.0 11.6 5.4 56 4.0 WSW 7 11 4 6 1017.2 1017.2 0.0
26/07:30am 12.6 11.4 6.6 67 2.9 SW 2 7 1 4 1016.9 1016.9 0.0
26/07:00am 9.5 9.1 8.1 91 0.7 CALM 0 0 0 0 1016.7 1016.7 0.0
26/06:30am 7.0 5.6 5.6 91 0.6 SW 2 6 1 3 1016.4 1016.4 0.0
26/06:00am 6.6 5.5 5.2 91 0.6 CALM 0 0 0 0 1016.2 1016.2 0.0
26/05:30am 7.3 6.1 6.4 94 0.4 S 2 7 1 4 1015.9 1015.9 0.0
26/05:00am 6.7 4.9 5.5 92 0.5 SW 4 6 2 3 1015.2 1015.2 0.0
26/04:30am 7.7 6.4 6.0 89 0.8 WSW 2 7 1 4 1014.9 1014.9 0.0
26/04:00am 7.8 5.7 5.9 88 0.9 SSW 6 9 3 5 1014.6 1014.6 0.0
26/03:30am 7.7 6.0 6.0 89 0.8 WNW 4 7 2 4 1014.4 1014.4 0.0
26/03:00am 7.4 5.1 5.9 90 0.7 N 7 9 4 5 1014.4 1014.4 0.0
26/02:30am 8.4 7.1 6.0 85 1.1 SW 2 7 1 4 1014.2 1014.2 0.0
26/02:00am 9.5 7.6 6.9 84 1.2 SSW 6 13 3 7 1014.3 1014.3 0.0
26/01:30am 7.9 7.1 6.5 91 0.6 CALM 0 0 0 0 1014.3 1014.3 0.0
26/01:00am 7.6 5.6 6.2 91 0.6 SW 6 9 3 5 1014.2 1014.2 0.0
26/12:30am 8.0 7.2 6.3 89 0.8 CALM 0 0 0 0 1014.5 1014.5 0.0
26/12:00am 8.6 7.8 6.7 88 0.9 CALM 0 0 0 0 1014.8 1014.8 0.0
 
Date/Time
EST
Temp
°C
App
Temp
°C
Dew
Point
°C
Rel
Hum
%
Delta-T
°C
Wind Press
QNH
hPa
Press
MSL
hPa
Rain since
9am
mm
Dir  Spd
km/h
Gust
km/h
Spd
kts
Gust
kts
25/11:30pm 8.6 7.8 6.7 88 0.9 CALM 0 0 0 0 1014.8 1014.8 0.0
25/11:00pm 8.4 6.2 6.4 87 0.9 WNW 7 9 4 5 1014.7 1014.7 0.0
25/10:30pm 9.3 6.9 7.1 86 1.0 W 9 11 5 6 1015.0 1015.0 0.0
25/10:00pm 10.9 8.6 7.6 80 1.6 WSW 9 11 5 6 1014.8 1014.8 0.0
25/09:30pm 11.5 9.1 7.2 75 2.1 W 9 11 5 6 1014.7 1014.7 0.0
25/09:00pm 11.9 9.1 6.8 71 2.4 W 11 13 6 7 1014.6 1014.6 0.0
25/08:30pm 11.5 9.2 7.6 77 1.9 W 9 13 5 7 1014.5 1014.5 0.0
25/08:00pm 12.5 10.1 8.6 77 1.9 WSW 11 13 6 7 1014.1 1014.1 0.0
25/07:30pm 12.9 10.5 8.6 75 2.1 WSW 11 13 6 7 1013.9 1013.9 0.0
25/07:00pm 13.4 11.5 8.9 74 2.3 WSW 9 13 5 7 1013.5 1013.5 0.0
25/06:30pm 14.1 12.3 9.3 73 2.4 WSW 9 11 5 6 1012.9 1012.9 0.0
25/06:00pm 14.3 12.6 8.5 68 2.9 W 7 11 4 6 1012.3 1012.3 0.0
25/05:30pm 15.2 12.9 7.3 59 3.9 W 9 13 5 7 1011.8 1011.8 0.0
25/05:00pm 18.3 15.1 5.2 42 6.3 SSW 11 20 6 11 1011.2 1011.2 0.0
25/04:30pm 19.4 15.3 4.4 37 7.2 SSW 15 20 8 11 1010.8 1010.8 0.0
25/04:00pm 20.1 16.6 5.4 38 7.2 SSW 13 19 7 10 1010.3 1010.3 0.0
25/03:30pm 20.2 16.4 3.9 34 7.8 SSW 13 20 7 11 1009.9 1009.9 0.0
25/03:00pm 20.5 17.3 4.9 36 7.6 SSW 11 20 6 11 1009.6 1009.6 0.0
25/02:30pm 20.8 16.6 5.6 37 7.5 SW 17 24 9 13 1009.5 1009.5 0.0
25/02:00pm 20.5 15.7 4.5 35 7.8 S 19 30 10 16 1009.2 1009.2 0.0
25/01:30pm 20.8 16.2 5.6 37 7.5 SSW 19 30 10 16 1008.7 1008.7 0.0
25/01:00pm 20.8 16.4 4.8 35 7.8 SW 17 26 9 14 1008.8 1008.8 0.0
25/12:30pm 20.6 16.0 5.8 38 7.4 SSW 19 26 10 14 1009.0 1009.0 0.0
25/12:00pm 20.2 16.0 5.8 39 7.2 SSW 17 26 9 14 1009.1 1009.1 0.0
25/11:30am 19.9 17.7 6.3 41 6.8 SW 7 15 4 8 1009.4 1009.4 0.0
25/11:00am 19.4 16.8 7.8 47 6.0 WNW 11 15 6 8 1009.6 1009.6 0.0
25/10:30am 19.4 16.7 9.0 51 5.5 NW 13 20 7 11 1009.9 1009.9 0.0
25/10:00am 18.4 15.0 7.8 50 5.4 NNW 15 24 8 13 1010.3 1010.3 0.0
25/09:30am 17.7 15.1 7.7 52 5.1 NW 11 15 6 8 1009.8 1009.8 0.0
25/09:00am 17.2 14.4 8.4 56 4.5 WNW 13 20 7 11 1010.0 1010.0 29.8
25/08:30am 16.6 13.0 8.3 58 4.2 WNW 17 24 9 13 1010.1 1010.1 29.8
25/08:00am 16.0 14.3 8.5 61 3.8 WNW 7 13 4 7 1009.5 1009.5 29.8
25/07:30am 14.5 11.5 9.1 70 2.8 NW 15 22 8 12 1009.6 1009.6 29.8
25/07:00am 14.5 11.7 9.9 74 2.4 NW 15 20 8 11 1009.5 1009.5 29.8
25/06:30am 14.3 11.5 9.9 75 2.3 WNW 15 19 8 10 1008.4 1008.4 29.8
25/06:00am 15.0 12.8 10.8 76 2.2 NW 13 20 7 11 1008.4 1008.4 29.8
25/05:30am 15.4 13.6 12.2 81 1.7 WNW 13 19 7 10 1008.0 1008.0 29.8
25/05:00am 15.5 14.1 13.3 87 1.2 WNW 13 17 7 9 1008.0 1008.0 29.8
25/04:30am 15.4 16.8 14.4 94 0.6 CALM 0 0 0 0 1007.1 1007.1 29.8
25/04:00am 15.8 16.0 14.3 91 0.9 WSW 6 9 3 5 1006.6 1006.6 29.8
25/03:30am 16.3 15.7 14.5 89 1.0 NW 11 15 6 8 1007.5 1007.5 29.8
25/03:00am 16.0 16.4 15.4 96 0.3 NNE 7 11 4 6 1007.2 1007.2 29.8
25/02:30am 15.9 16.7 14.9 94 0.6 WSW 4 9 2 5 1005.8 1005.8 29.8
25/02:00am 16.2 16.5 14.9 92 0.8 N 7 11 4 6 1004.6 1004.6 29.8
25/01:55am 16.4 16.7 14.9 91 0.9 N 7 11 4 6 1004.7 1004.7 29.8
25/01:30am 16.2 16.6 15.2 94 0.6 NW 7 13 4 7 1006.8 1006.8 29.8
25/01:18am 16.3 16.7 15.2 93 0.6 N 7 9 4 5 1006.5 1006.5 29.8
25/01:00am 16.3 18.0 15.2 93 0.6 CALM 0 0 0 0 1006.9 1006.9 29.8
25/12:30am 16.5 16.5 15.2 92 0.8 NW 9 20 5 11 1006.2 1006.2 29.8
25/12:13am 16.5 15.4 15.2 92 0.8 NW 15 22 8 12 1006.6 1006.6 29.8
25/12:00am 16.5 14.9 15.0 91 0.9 NW 17 26 9 14 1007.2 1007.2 29.8
 
Date/Time
EST
Temp
°C
App
Temp
°C
Dew
Point
°C
Rel
Hum
%
Delta-T
°C
Wind Press
QNH
hPa
Press
MSL
hPa
Rain since
9am
mm
Dir  Spd
km/h
Gust
km/h
Spd
kts
Gust
kts
24/11:30pm 16.4 14.4 14.9 91 0.9 NNW 19 26 10 14 1005.9 1005.9 29.8
24/11:00pm 16.2 15.4 15.1 93 0.6 NNW 13 17 7 9 1005.3 1005.3 29.8
24/10:30pm 16.1 16.1 15.3 95 0.5 NNW 9 13 5 7 1006.2 1006.2 29.8
24/10:00pm 15.9 16.2 15.1 95 0.5 NW 7 11 4 6 1007.0 1007.0 29.8
24/09:30pm 16.3 16.0 15.5 95 0.5 NW 11 15 6 8 1007.3 1007.3 29.6
24/09:00pm 16.1 15.8 15.5 96 0.3 NW 11 17 6 9 1007.2 1007.2 29.6
24/08:30pm 15.9 15.5 15.3 96 0.3 WNW 11 15 6 8 1007.3 1007.3 29.6
24/08:10pm 15.9 16.4 15.1 95 0.5 WSW 6 9 3 5 1006.5 1006.5 29.6
24/08:00pm 16.1 17.5 15.3 95 0.5 W 2 7 1 4 1006.7 1006.7 29.6
24/07:30pm 16.3 15.7 15.7 96 0.4 NW 13 19 7 10 1007.8 1007.8 29.6
24/07:28pm 16.3 15.7 15.7 96 0.4 NW 13 19 7 10 1007.8 1007.8 29.6
24/07:00pm 16.1 16.1 15.3 95 0.5 NW 9 13 5 7 1007.3 1007.3 29.6
24/06:30pm 16.1 15.7 15.3 95 0.5 NW 11 15 6 8 1007.3 1007.3 29.6
24/06:00pm 16.2 16.3 15.4 95 0.5 N 9 13 5 7 1006.3 1006.3 29.6
24/05:30pm 16.0 15.9 14.9 93 0.6 NW 9 13 5 7 1007.0 1007.0 29.4
24/05:00pm 16.2 17.0 14.9 92 0.8 SW 4 7 2 4 1007.1 1007.1 29.4

Other Formats:

Comma delimited format used in spreadsheet applications
http://www.bom.gov.au/fwo/IDN60801/IDN60801.94592.axf

JavaScript Object Notation format (JSON) in row-major order
http://www.bom.gov.au/fwo/IDN60801/IDN60801.94592.json